Airfield :
LOGIN :

Register | Disclaimer

   EN    FR    IT 

 










Legend :    VFR   Marginal VFR   IFR   Intensive IFR   Very Intensive IFR
Visi :
Ceiling :
>= 8 km
>= 3000ft
5 to 8 km
1000 to 3000 ft
1500m to 5 km
500 to 1000 ft
800 to 1500m
200 to 500 ft
< 800m
< 200 ft
Symbols :   Thunderstorms  Fog  Heavy snow  Heavy precipitations  Wind > 20 kt
SIGMETs :     Misc.  Thunderstorms  Icing  Turbulence  Mountain Waves  Volcanic Ashes







- Airport Elevation : 17 ft
- IATA code : GRQ


EHGG - Groningen Eelde

CURRENT METAR :
  • 172055Z AUTO 08009KT 050V110 9999 NCD 02/M00 Q1034 NOSIG

EXPIRED METARs :
  • 172025Z AUTO 08009KT 050V110 9999 NCD 02/M00 Q1034 NOSIG
  • 171955Z AUTO 08009KT 9999 NCD 02/00 Q1034 NOSIG
  • 171925Z AUTO 07009KT 9000 NCD 02/00 Q1034 NOSIG
  • 171855Z AUTO 07010KT 9999 NCD 03/01 Q1034 NOSIG
  • 171825Z AUTO 08011KT 050V110 9999 NCD 03/01 Q1034 NOSIG

TAF TAF EHGG
Valid from the 17 at 18:00 until the 19 at 00:00 UTC


171703Z 1718/1824 09012KT CAVOK
PROB40 1721/1807 6000
PROB30 1804/1807 4000 BR
BECMG 1819/1822 06007KT BKN012
PROB30 1820/1824 6000 BKN008
No reported NOTAMs for that airfield.



MET'MAP, your aeronautical weather chart ! - Copyright ORBIFLY December 2007 - Disclaimer

ORBIFLY MET'MAP TEAM :

Programming & Development : Alexandra Zaïnal
Concept & Development : Baudouin d'Aumeries
Co-Development & Prog : Marc-Olivier Méhu
Technical & hardware support : Manuel Goepfert

Contact : metmap@orbifly.com




SOURCES & CREDITS :

   NOAA